Аэропорт: Симферополь. Симферополь

ICAO: URFF

METAR:
2022-01-28 08:30:00
URFF 280830Z 22007MPS 9999 BKN036 05/01 Q1015 R19/290295 NOSIG
METAR:
2022-01-28 07:45:00
TAF COR URFF 280745Z 2807/2906 20008G13MPS 6000 BKN016 SCT020CB TX04/2811Z TN00/2902Z FM281500 24005G10MPS 3100 -SHSN BR BKN011 BKN020CB